createdAt,value
2018-06-02T00:01:36.103Z,101171.32
2018-06-02T00:04:04.426Z,101167.70
2018-06-02T00:06:32.728Z,101164.71
2018-06-02T00:09:01.090Z,101165.82
2018-06-02T00:11:31.898Z,101166.67
2018-06-02T00:14:00.221Z,101166.77
2018-06-02T00:16:28.570Z,101162.66
2018-06-02T00:18:56.895Z,101161.15
2018-06-02T00:21:25.222Z,101158.24
2018-06-02T00:23:53.962Z,101160.70
2018-06-02T00:26:22.397Z,101154.08
2018-06-02T00:28:50.724Z,101150.97
2018-06-02T00:31:19.403Z,101162.89
2018-06-02T00:33:47.734Z,101159.78
2018-06-02T00:36:16.109Z,101166.63
2018-06-02T00:38:44.683Z,101165.56
2018-06-02T00:41:12.990Z,101171.97
2018-06-02T00:43:41.306Z,101164.84
2018-06-02T00:46:09.647Z,101162.75
2018-06-02T00:48:37.949Z,101157.93
2018-06-02T00:51:06.275Z,101154.17
2018-06-02T00:53:34.825Z,101150.38
2018-06-02T00:56:03.159Z,101150.56
2018-06-02T00:58:31.458Z,101143.62
2018-06-02T01:01:00.501Z,101139.91
2018-06-02T01:03:28.821Z,101137.06
2018-06-02T01:05:57.165Z,101144.79
2018-06-02T01:08:25.553Z,101137.41
2018-06-02T01:10:53.955Z,101137.64
2018-06-02T01:13:22.289Z,101135.06
2018-06-02T01:15:50.624Z,101138.98
2018-06-02T01:18:19.077Z,101126.30
2018-06-02T01:20:47.478Z,101117.47
2018-06-02T01:23:16.262Z,101118.50
2018-06-02T01:25:44.593Z,101108.34
2018-06-02T01:28:13.290Z,101119.10
2018-06-02T01:30:42.233Z,101107.63
2018-06-02T01:33:10.564Z,101101.26
2018-06-02T01:35:38.857Z,101106.05
2018-06-02T01:38:07.287Z,101107.47
2018-06-02T01:40:35.604Z,101104.22
2018-06-02T01:43:03.917Z,101104.61
2018-06-02T01:45:32.276Z,101103.84
2018-06-02T01:48:00.757Z,101102.94
2018-06-02T01:50:29.109Z,101101.28
2018-06-02T01:52:57.629Z,101096.17
2018-06-02T01:55:25.982Z,101092.97
2018-06-02T01:57:54.310Z,101094.95
2018-06-02T02:00:22.665Z,101096.06
2018-06-02T02:02:51.033Z,101097.31
2018-06-02T02:05:19.363Z,101096.35
2018-06-02T02:07:48.921Z,101090.33
2018-06-02T02:10:18.153Z,101096.79
2018-06-02T02:12:46.483Z,101097.02
2018-06-02T02:15:14.841Z,101106.80
2018-06-02T02:17:43.153Z,101105.09
2018-06-02T02:20:11.471Z,101108.45
2018-06-02T02:22:39.909Z,101109.73
2018-06-02T02:25:08.260Z,101111.48
2018-06-02T02:27:36.579Z,101114.34
2018-06-02T02:30:06.108Z,101111.97
2018-06-02T02:32:34.431Z,101114.09
2018-06-02T02:35:02.752Z,101119.13
2018-06-02T02:37:31.107Z,101119.13
2018-06-02T02:39:59.451Z,101120.78
2018-06-02T02:42:27.803Z,101124.55
2018-06-02T02:44:56.260Z,101120.90
2018-06-02T02:47:24.624Z,101124.20
2018-06-02T02:49:53.037Z,101126.77
2018-06-02T02:52:22.179Z,101137.28
2018-06-02T02:54:50.491Z,101136.30
2018-06-02T02:57:18.935Z,101140.05
2018-06-02T02:59:47.453Z,101138.55
2018-06-02T03:02:16.153Z,101143.66
2018-06-02T03:04:44.473Z,101142.14
2018-06-02T03:07:14.333Z,101147.62
2018-06-02T03:09:43.609Z,101150.30
2018-06-02T03:12:11.937Z,101149.13
2018-06-02T03:14:40.288Z,101155.53
2018-06-02T03:17:08.612Z,101164.22
2018-06-02T03:19:36.921Z,101169.95
2018-06-02T03:22:05.276Z,101173.77
2018-06-02T03:24:33.593Z,101180.84
2018-06-02T03:27:01.942Z,101181.53
2018-06-02T03:29:31.134Z,101182.31
2018-06-02T03:31:59.461Z,101195.28
2018-06-02T03:34:27.789Z,101203.17
2018-06-02T03:36:56.178Z,101205.83
2018-06-02T03:39:24.538Z,101200.56
2018-06-02T03:41:52.898Z,101186.97
2018-06-02T03:44:21.669Z,101186.09
2018-06-02T03:46:50.006Z,101199.91
2018-06-02T03:49:18.524Z,101204.41
2018-06-02T03:51:47.189Z,101199.33
2018-06-02T03:54:15.504Z,101197.88
2018-06-02T03:56:43.844Z,101195.28
2018-06-02T03:59:12.385Z,101197.16
2018-06-02T04:01:40.777Z,101198.83
2018-06-02T04:04:09.097Z,101209.84
2018-06-02T04:06:37.448Z,101202.42
2018-06-02T04:09:05.764Z,101191.67
2018-06-02T04:11:34.113Z,101192.22
2018-06-02T04:14:03.030Z,101193.57
2018-06-02T04:16:31.348Z,101198.94
2018-06-02T04:18:59.663Z,101202.81
2018-06-02T04:21:28.635Z,101206.05
2018-06-02T04:23:56.955Z,101201.88
2018-06-02T04:26:25.296Z,101196.05
2018-06-02T04:28:53.733Z,101194.18
2018-06-02T04:31:23.751Z,101199.02
2018-06-02T04:33:52.184Z,101198.16
2018-06-02T04:36:21.337Z,101190.25
2018-06-02T04:38:49.648Z,101194.66
2018-06-02T04:41:18.025Z,101194.09
2018-06-02T04:43:46.435Z,101190.67
2018-06-02T04:46:14.756Z,101191.55
2018-06-02T04:48:43.070Z,101186.78
2018-06-02T04:51:11.782Z,101190.19
2018-06-02T04:53:40.117Z,101184.73
2018-06-02T04:56:08.443Z,101184.54
2018-06-02T04:58:37.386Z,101192.63
2018-06-02T05:01:05.697Z,101190.89
2018-06-02T05:03:34.034Z,101186.77
2018-06-02T05:06:02.377Z,101186.11
2018-06-02T05:08:30.714Z,101190.28
2018-06-02T05:10:59.037Z,101198.20
2018-06-02T05:13:28.297Z,101198.63
2018-06-02T05:15:56.613Z,101206.43
2018-06-02T05:18:24.948Z,101205.48
2018-06-02T05:20:53.645Z,101199.20
2018-06-02T05:23:22.051Z,101201.19
2018-06-02T05:25:50.386Z,101201.52
2018-06-02T05:28:18.769Z,101203.60
2018-06-02T05:30:47.590Z,101199.06
2018-06-02T05:33:15.937Z,101208.27
2018-06-02T05:35:44.294Z,101200.50
2018-06-02T05:38:12.595Z,101203.13
2018-06-02T05:40:40.954Z,101206.23
2018-06-02T05:43:09.274Z,101201.66
2018-06-02T05:45:37.609Z,101206.80
2018-06-02T05:48:05.900Z,101211.84
2018-06-02T05:50:34.251Z,101201.98
2018-06-02T05:53:02.560Z,101200.13
2018-06-02T05:55:30.886Z,101206.25
2018-06-02T05:57:59.256Z,101202.69
2018-06-02T06:00:27.590Z,101193.89
2018-06-02T06:02:55.911Z,101192.84
2018-06-02T06:05:25.166Z,101203.64
2018-06-02T06:07:53.525Z,101200.49
2018-06-02T06:10:21.923Z,101207.27
2018-06-02T06:12:50.304Z,101205.91
2018-06-02T06:15:18.656Z,101214.45
2018-06-02T06:17:46.966Z,101205.56
2018-06-02T06:20:15.929Z,101212.28
2018-06-02T06:22:44.261Z,101212.61
2018-06-02T06:25:12.567Z,101204.79
2018-06-02T06:27:42.699Z,101203.21
2018-06-02T06:30:11.012Z,101209.16
2018-06-02T06:32:39.313Z,101203.86
2018-06-02T06:35:07.736Z,101204.50
2018-06-02T06:37:36.175Z,101190.16
2018-06-02T06:40:04.481Z,101197.91
2018-06-02T06:42:32.829Z,101196.12
2018-06-02T06:45:01.153Z,101198.92
2018-06-02T06:47:29.481Z,101199.37
2018-06-02T06:49:58.155Z,101197.13
2018-06-02T06:52:26.533Z,101187.56
2018-06-02T06:54:55.075Z,101195.64
2018-06-02T06:57:23.582Z,101197.45
2018-06-02T06:59:51.915Z,101195.94
2018-06-02T07:02:20.237Z,101209.54
2018-06-02T07:04:48.612Z,101209.23
2018-06-02T07:07:17.021Z,101214.03
2018-06-02T07:09:45.354Z,101204.64
2018-06-02T07:12:14.010Z,101195.61
2018-06-02T07:14:42.312Z,101205.03
2018-06-02T07:17:10.637Z,101205.03
2018-06-02T07:19:38.968Z,101208.39
2018-06-02T07:22:07.280Z,101210.50
2018-06-02T07:24:35.598Z,101208.52
2018-06-02T07:27:03.932Z,101209.91
2018-06-02T07:29:32.222Z,101219.38
2018-06-02T07:32:00.534Z,101220.77
2018-06-02T07:34:29.624Z,101219.30
2018-06-02T07:36:57.953Z,101226.02
2018-06-02T07:39:26.278Z,101219.99
2018-06-02T07:41:54.631Z,101224.88
2018-06-02T07:44:23.079Z,101229.48
2018-06-02T07:46:51.386Z,101228.81
2018-06-02T07:49:19.922Z,101232.33
2018-06-02T07:51:48.262Z,101223.19
2018-06-02T07:54:16.602Z,101230.09
2018-06-02T07:56:45.746Z,101225.22
2018-06-02T07:59:14.036Z,101227.88
2018-06-02T08:01:42.346Z,101230.11
2018-06-02T08:04:11.466Z,101224.45
2018-06-02T08:06:39.773Z,101221.03
2018-06-02T08:09:08.083Z,101220.25
2018-06-02T08:11:36.505Z,101217.55
2018-06-02T08:14:04.805Z,101224.55
2018-06-02T08:16:33.125Z,101217.61
2018-06-02T08:19:01.617Z,101217.89
2018-06-02T08:21:30.041Z,101216.10
2018-06-02T08:23:58.369Z,101217.88
2018-06-02T08:26:26.902Z,101217.38
2018-06-02T08:28:55.288Z,101215.24
2018-06-02T08:31:23.611Z,101219.80
2018-06-02T08:33:52.370Z,101216.31
2018-06-02T08:36:21.530Z,101222.67
2018-06-02T08:38:49.878Z,101224.42
2018-06-02T08:41:19.119Z,101224.36
2018-06-02T08:43:47.449Z,101217.87
2018-06-02T08:46:15.769Z,101219.53
2018-06-02T08:48:44.105Z,101215.31
2018-06-02T08:51:12.441Z,101218.70
2018-06-02T08:53:40.752Z,101216.34
2018-06-02T08:56:09.335Z,101221.34
2018-06-02T08:58:37.645Z,101211.30
2018-06-02T09:01:05.944Z,101218.31
2018-06-02T09:03:35.024Z,101223.73
2018-06-02T09:06:04.263Z,101230.19
2018-06-02T09:08:32.577Z,101224.84
2018-06-02T09:11:00.917Z,101225.12
2018-06-02T09:13:29.242Z,101231.77
2018-06-02T09:15:57.739Z,101231.41
2018-06-02T09:18:26.886Z,101234.95
2018-06-02T09:20:55.250Z,101231.62
2018-06-02T09:23:23.598Z,101240.98
2018-06-02T09:25:51.968Z,101240.42
2018-06-02T09:28:20.280Z,101239.80
2018-06-02T09:30:48.603Z,101240.39
2018-06-02T09:33:17.076Z,101240.65
2018-06-02T09:35:45.424Z,101233.28
2018-06-02T09:38:13.764Z,101240.27
2018-06-02T09:40:43.378Z,101237.95
2018-06-02T09:43:11.704Z,101238.84
2018-06-02T09:45:40.019Z,101233.33
2018-06-02T09:48:08.398Z,101232.55
2018-06-02T09:50:36.683Z,101230.65
2018-06-02T09:53:04.989Z,101230.58
2018-06-02T09:55:33.345Z,101235.71
2018-06-02T09:58:01.670Z,101234.59
2018-06-02T10:00:30.809Z,101237.63
2018-06-02T10:02:59.175Z,101239.50
2018-06-02T10:05:27.476Z,101241.41
2018-06-02T10:07:55.809Z,101244.14
2018-06-02T10:10:25.510Z,101240.02
2018-06-02T10:12:53.914Z,101238.31
2018-06-02T10:15:22.319Z,101238.36
2018-06-02T10:17:50.684Z,101237.94
2018-06-02T10:20:19.041Z,101236.03
2018-06-02T10:22:47.357Z,101237.33
2018-06-02T10:25:15.806Z,101230.55
2018-06-02T10:27:44.119Z,101234.33
2018-06-02T10:30:12.437Z,101231.97
2018-06-02T10:32:40.773Z,101236.38
2018-06-02T10:35:09.091Z,101235.66
2018-06-02T10:37:37.525Z,101224.42
2018-06-02T10:40:05.875Z,101230.50
2018-06-02T10:42:34.189Z,101227.84
2018-06-02T10:45:02.503Z,101224.89
2018-06-02T10:47:31.476Z,101225.05
2018-06-02T10:49:59.810Z,101226.22
2018-06-02T10:52:28.132Z,101226.87
2018-06-02T10:54:56.966Z,101231.26
2018-06-02T10:57:25.266Z,101237.59
2018-06-02T10:59:53.634Z,101227.53
2018-06-02T11:02:22.046Z,101246.17
2018-06-02T11:04:50.371Z,101234.63
2018-06-02T11:07:18.692Z,101232.42
2018-06-02T11:09:47.151Z,101236.87
2018-06-02T11:12:15.465Z,101233.73
2018-06-02T11:14:43.809Z,101240.84
2018-06-02T11:17:13.693Z,101240.75
2018-06-02T11:19:42.172Z,101241.02
2018-06-02T11:22:10.487Z,101242.48
2018-06-02T11:24:38.829Z,101247.31
2018-06-02T11:27:07.124Z,101245.16
2018-06-02T11:29:35.433Z,101246.03
2018-06-02T11:32:04.558Z,101249.55
2018-06-02T11:34:32.875Z,101248.23
2018-06-02T11:37:01.181Z,101249.22
2018-06-02T11:39:30.183Z,101244.00
2018-06-02T11:41:58.481Z,101240.67
2018-06-02T11:44:26.806Z,101241.25
2018-06-02T11:46:55.143Z,101243.45
2018-06-02T11:49:23.493Z,101257.68
2018-06-02T11:51:51.838Z,101256.27
2018-06-02T11:54:20.761Z,101254.75
2018-06-02T11:56:49.210Z,101258.02
2018-06-02T11:59:17.599Z,101258.06
2018-06-02T12:01:47.480Z,101260.83
2018-06-02T12:04:16.495Z,101256.00
2018-06-02T12:06:44.807Z,101260.45
2018-06-02T12:09:13.153Z,101253.78
2018-06-02T12:11:41.489Z,101253.28
2018-06-02T12:14:09.794Z,101248.94
2018-06-02T12:16:38.737Z,101253.67
2018-06-02T12:19:07.074Z,101254.34
2018-06-02T12:21:35.386Z,101247.81
2018-06-02T12:24:04.643Z,101248.97
2018-06-02T12:26:32.942Z,101254.03
2018-06-02T12:29:01.270Z,101256.31
2018-06-02T12:31:29.847Z,101245.02
2018-06-02T12:33:58.223Z,101247.44
2018-06-02T12:36:26.705Z,101241.92
2018-06-02T12:38:55.302Z,101239.45
2018-06-02T12:41:23.696Z,101245.22
2018-06-02T12:43:52.047Z,101247.52
2018-06-02T12:46:21.288Z,101244.72
2018-06-02T12:48:49.616Z,101253.47
2018-06-02T12:51:17.962Z,101250.94
2018-06-02T12:53:46.387Z,101245.07
2018-06-02T12:56:14.697Z,101246.34
2018-06-02T12:58:42.997Z,101247.22
2018-06-02T13:01:11.337Z,101245.38
2018-06-02T13:03:39.695Z,101246.25
2018-06-02T13:06:07.978Z,101252.42
2018-06-02T13:08:36.781Z,101244.19
2018-06-02T13:11:05.070Z,101248.23
2018-06-02T13:13:33.433Z,101247.82
2018-06-02T13:16:01.777Z,101244.59
2018-06-02T13:18:30.105Z,101247.23
2018-06-02T13:20:58.413Z,101251.09
2018-06-02T13:23:26.749Z,101252.53
2018-06-02T13:25:55.087Z,101251.21
2018-06-02T13:28:23.435Z,101237.19
2018-06-02T13:30:52.643Z,101239.27
2018-06-02T13:33:20.969Z,101241.49
2018-06-02T13:35:49.296Z,101239.19
2018-06-02T13:38:18.130Z,101251.13
2018-06-02T13:40:46.509Z,101249.39
2018-06-02T13:43:14.884Z,101237.66
2018-06-02T13:45:45.024Z,101233.72
2018-06-02T13:48:13.372Z,101237.60
2018-06-02T13:50:41.684Z,101238.45
2018-06-02T13:53:10.033Z,101225.98
2018-06-02T13:55:38.344Z,101232.93
2018-06-02T13:58:06.670Z,101232.63
2018-06-02T14:00:35.037Z,101233.67
2018-06-02T14:03:03.380Z,101232.64
2018-06-02T14:05:31.701Z,101229.44
2018-06-02T14:08:00.627Z,101222.18
2018-06-02T14:10:28.953Z,101228.94
2018-06-02T14:12:57.278Z,101228.52
2018-06-02T14:15:25.633Z,101230.91
2018-06-02T14:17:53.980Z,101231.25
2018-06-02T14:20:22.389Z,101243.02
2018-06-02T14:22:50.848Z,101247.20
2018-06-02T14:25:19.166Z,101247.08
2018-06-02T14:27:47.611Z,101243.39
2018-06-02T14:30:16.786Z,101248.41
2018-06-02T14:32:45.117Z,101251.55
2018-06-02T14:35:13.444Z,101248.14
2018-06-02T14:37:42.226Z,101251.24
2018-06-02T14:40:10.514Z,101251.67
2018-06-02T14:42:38.910Z,101254.10
2018-06-02T14:45:07.461Z,101254.56
2018-06-02T14:47:35.804Z,101252.14
2018-06-02T14:50:04.123Z,101252.91
2018-06-02T14:52:34.149Z,101255.16
2018-06-02T14:55:02.528Z,101255.98
2018-06-02T14:57:30.785Z,101253.89
2018-06-02T14:59:59.920Z,101253.02
2018-06-02T15:02:28.329Z,101259.14
2018-06-02T15:04:56.636Z,101248.55
2018-06-02T15:07:25.777Z,101249.44
2018-06-02T15:09:54.181Z,101258.33
2018-06-02T15:12:22.574Z,101253.46
2018-06-02T15:14:51.005Z,101253.26
2018-06-02T15:17:19.434Z,101254.86
2018-06-02T15:19:47.791Z,101257.71
2018-06-02T15:22:16.215Z,101257.92
2018-06-02T15:24:44.552Z,101259.69
2018-06-02T15:27:12.920Z,101264.36
2018-06-02T15:29:41.530Z,101257.82
2018-06-02T15:32:09.860Z,101263.36
2018-06-02T15:34:38.214Z,101258.27
2018-06-02T15:37:06.987Z,101264.00
2018-06-02T15:39:35.305Z,101268.64
2018-06-02T15:42:03.615Z,101270.86
2018-06-02T15:44:32.836Z,101274.75
2018-06-02T15:47:01.193Z,101274.95
2018-06-02T15:49:29.519Z,101275.58
2018-06-02T15:51:58.152Z,101272.92
2018-06-02T15:54:26.538Z,101274.17
2018-06-02T15:56:55.087Z,101286.13
2018-06-02T15:59:23.504Z,101288.66
2018-06-02T16:01:51.855Z,101295.41
2018-06-02T16:04:20.273Z,101289.45
2018-06-02T16:06:49.537Z,101295.72
2018-06-02T16:09:17.881Z,101300.52
2018-06-02T16:11:46.236Z,101298.83
2018-06-02T16:14:14.571Z,101293.77
2018-06-02T16:16:42.933Z,101300.16
2018-06-02T16:19:11.291Z,101302.09
2018-06-02T16:21:39.626Z,101308.14
2018-06-02T16:24:07.985Z,101304.59
2018-06-02T16:26:36.300Z,101302.02
2018-06-02T16:29:04.648Z,101305.62
2018-06-02T16:31:32.980Z,101295.52
2018-06-02T16:34:01.342Z,101304.68
2018-06-02T16:36:29.770Z,101303.65
2018-06-02T16:38:58.196Z,101300.36
2018-06-02T16:41:26.599Z,101301.71
2018-06-02T16:43:54.993Z,101302.98
2018-06-02T16:46:23.908Z,101295.45
2018-06-02T16:48:52.321Z,101293.05
2018-06-02T16:51:21.559Z,101296.47
2018-06-02T16:53:50.036Z,101299.01
2018-06-02T16:56:18.441Z,101299.61
2018-06-02T16:58:47.230Z,101292.98
2018-06-02T17:01:15.584Z,101290.08
2018-06-02T17:03:43.927Z,101290.91
2018-06-02T17:06:12.256Z,101290.69
2018-06-02T17:08:40.596Z,101290.05
2018-06-02T17:11:08.926Z,101291.94
2018-06-02T17:13:38.329Z,101295.45
2018-06-02T17:16:06.660Z,101299.95
2018-06-02T17:18:34.979Z,101300.23
2018-06-02T17:21:03.746Z,101300.27
2018-06-02T17:23:32.097Z,101306.01
2018-06-02T17:26:00.491Z,101298.47
2018-06-02T17:28:29.343Z,101298.92
2018-06-02T17:30:57.801Z,101301.61
2018-06-02T17:33:26.179Z,101301.37
2018-06-02T17:35:54.681Z,101303.58
2018-06-02T17:38:23.162Z,101307.62
2018-06-02T17:40:51.849Z,101306.41
2018-06-02T17:43:20.229Z,101305.97
2018-06-02T17:45:48.608Z,101299.06
2018-06-02T17:48:16.967Z,101297.61
2018-06-02T17:50:45.349Z,101300.14
2018-06-02T17:53:13.663Z,101311.70
2018-06-02T17:55:42.013Z,101309.36
2018-06-02T17:58:10.368Z,101305.20
2018-06-02T18:00:38.694Z,101308.41
2018-06-02T18:03:07.033Z,101302.47
2018-06-02T18:05:35.377Z,101312.17
2018-06-02T18:08:03.713Z,101314.30
2018-06-02T18:10:32.177Z,101304.50
2018-06-02T18:13:01.211Z,101305.51
2018-06-02T18:15:29.523Z,101299.81
2018-06-02T18:17:57.951Z,101310.39
2018-06-02T18:20:26.432Z,101309.87
2018-06-02T18:22:54.745Z,101314.33
2018-06-02T18:25:23.182Z,101322.58
2018-06-02T18:27:52.131Z,101323.94
2018-06-02T18:30:20.776Z,101331.84
2018-06-02T18:32:49.246Z,101319.28
2018-06-02T18:35:18.015Z,101325.71
2018-06-02T18:37:46.438Z,101322.56
2018-06-02T18:40:14.770Z,101329.48
2018-06-02T18:42:43.916Z,101328.02
2018-06-02T18:45:12.262Z,101333.53
2018-06-02T18:47:41.510Z,101338.47
2018-06-02T18:50:09.897Z,101336.77
2018-06-02T18:52:38.215Z,101339.11
2018-06-02T18:55:06.548Z,101335.97
2018-06-02T18:57:35.807Z,101341.92
2018-06-02T19:00:04.162Z,101335.37
2018-06-02T19:02:32.538Z,101347.16
2018-06-02T19:05:00.921Z,101339.77
2018-06-02T19:07:29.517Z,101354.88
2018-06-02T19:09:57.888Z,101346.56
2018-06-02T19:12:27.021Z,101347.45
2018-06-02T19:14:55.373Z,101355.48
2018-06-02T19:17:23.752Z,101354.67
2018-06-02T19:19:53.009Z,101359.03
2018-06-02T19:22:21.517Z,101360.20
2018-06-02T19:24:49.945Z,101370.47
2018-06-02T19:27:18.507Z,101374.28
2018-06-02T19:29:46.947Z,101379.47
2018-06-02T19:32:15.341Z,101381.72
2018-06-02T19:34:43.782Z,101386.88
2018-06-02T19:37:12.118Z,101384.52
2018-06-02T19:39:40.434Z,101387.00
2018-06-02T19:42:08.808Z,101393.53
2018-06-02T19:44:37.133Z,101393.00
2018-06-02T19:47:05.497Z,101404.36
2018-06-02T19:49:33.850Z,101395.63
2018-06-02T19:52:02.244Z,101400.29
2018-06-02T19:54:30.684Z,101408.03
2018-06-02T19:56:59.845Z,101409.55
2018-06-02T19:59:28.340Z,101411.91
2018-06-02T20:01:56.796Z,101409.94
2018-06-02T20:04:25.209Z,101406.70
2018-06-02T20:06:53.585Z,101408.67
2018-06-02T20:09:21.951Z,101407.15
2018-06-02T20:11:50.333Z,101399.47
2018-06-02T20:14:18.829Z,101403.95
2018-06-02T20:16:47.561Z,101396.61
2018-06-02T20:19:16.016Z,101394.88
2018-06-02T20:21:44.337Z,101401.73
2018-06-02T20:24:12.671Z,101406.77
2018-06-02T20:26:41.750Z,101408.39
2018-06-02T20:29:10.718Z,101402.52
2018-06-02T20:31:39.031Z,101408.09
2018-06-02T20:34:07.683Z,101402.95
2018-06-02T20:36:36.099Z,101414.94
2018-06-02T20:39:04.472Z,101411.88
2018-06-02T20:41:33.539Z,101412.73
2018-06-02T20:44:01.876Z,101412.78
2018-06-02T20:46:30.228Z,101411.84
2018-06-02T20:48:58.880Z,101406.66
2018-06-02T20:51:27.226Z,101419.20
2018-06-02T20:53:55.542Z,101413.23
2018-06-02T20:56:24.025Z,101420.08
2018-06-02T20:58:52.402Z,101418.69
2018-06-02T21:01:20.800Z,101409.70
2018-06-02T21:03:50.307Z,101422.39
2018-06-02T21:06:18.820Z,101418.88
2018-06-02T21:08:47.434Z,101423.67
2018-06-02T21:11:15.849Z,101425.23
2018-06-02T21:13:44.175Z,101422.24
2018-06-02T21:16:12.501Z,101426.92
2018-06-02T21:18:40.879Z,101436.61
2018-06-02T21:21:09.199Z,101435.83
2018-06-02T21:23:37.507Z,101434.93
2018-06-02T21:26:07.733Z,101432.65
2018-06-02T21:28:36.096Z,101435.86
2018-06-02T21:31:04.454Z,101433.42
2018-06-02T21:33:33.145Z,101426.48
2018-06-02T21:36:01.474Z,101438.98
2018-06-02T21:38:29.794Z,101433.58
2018-06-02T21:40:58.289Z,101438.77
2018-06-02T21:43:26.658Z,101441.02
2018-06-02T21:45:55.069Z,101445.31
2018-06-02T21:48:23.536Z,101441.95
2018-06-02T21:50:52.214Z,101440.17
2018-06-02T21:53:20.608Z,101433.70
2018-06-02T21:55:49.289Z,101429.78
2018-06-02T21:58:17.859Z,101436.66
2018-06-02T22:00:46.229Z,101436.58
2018-06-02T22:03:16.117Z,101432.56
2018-06-02T22:05:44.425Z,101432.09
2018-06-02T22:08:12.729Z,101428.80
2018-06-02T22:10:41.606Z,101436.56
2018-06-02T22:13:09.971Z,101442.77
2018-06-02T22:15:38.265Z,101450.45
2018-06-02T22:18:07.136Z,101445.48
2018-06-02T22:20:35.452Z,101450.25
2018-06-02T22:23:03.792Z,101447.22
2018-06-02T22:25:33.403Z,101452.48
2018-06-02T22:28:01.838Z,101451.63
2018-06-02T22:30:30.256Z,101449.98
2018-06-02T22:32:58.975Z,101448.73
2018-06-02T22:35:27.552Z,101451.52
2018-06-02T22:37:56.127Z,101452.00
2018-06-02T22:40:25.452Z,101445.45
2018-06-02T22:42:54.135Z,101443.68
2018-06-02T22:45:22.476Z,101444.67
2018-06-02T22:47:51.878Z,101448.36
2018-06-02T22:50:20.299Z,101449.22
2018-06-02T22:52:50.253Z,101446.98
2018-06-02T22:55:19.664Z,101442.66
2018-06-02T22:57:48.067Z,101443.98
2018-06-02T23:00:21.243Z,101448.09
2018-06-02T23:02:49.624Z,101445.71
2018-06-02T23:05:18.080Z,101448.91
2018-06-02T23:07:47.586Z,101450.33
2018-06-02T23:10:15.899Z,101450.33
2018-06-02T23:12:44.214Z,101453.41
2018-06-02T23:15:12.945Z,101448.88
2018-06-02T23:17:41.277Z,101452.86
2018-06-02T23:20:09.654Z,101453.84
2018-06-02T23:22:38.817Z,101455.05
2018-06-02T23:25:07.908Z,101448.94
2018-06-02T23:27:36.219Z,101450.50
2018-06-02T23:30:05.527Z,101443.59
2018-06-02T23:32:33.862Z,101443.95
2018-06-02T23:35:02.202Z,101452.50
2018-06-02T23:37:31.117Z,101462.11
2018-06-02T23:39:59.445Z,101447.37
2018-06-02T23:42:27.811Z,101445.31
2018-06-02T23:44:56.172Z,101446.17
2018-06-02T23:47:24.526Z,101448.64
2018-06-02T23:49:52.913Z,101446.65
2018-06-02T23:52:21.286Z,101446.66
2018-06-02T23:54:49.682Z,101450.39
2018-06-02T23:57:18.041Z,101449.48
2018-06-02T23:59:46.456Z,101448.62
